Time;durP1;ratioP1;P1;durP2;ratioP2;P2;SDS_P1;SDS_P2;PMS_P1;PMS_P2;Temp;Humidity;BMP_temperature;BMP_pressure;BME280_temperature;BME280_humidity;BME280_pressure;Samples;Min_cycle;Max_cycle;Signal;HPM_P1;HPM_P2
2022/05/30 00:00:20;;;;;;;7.40;1.58;;;9.30;99.90;;;;;;5054374;28;20032;-69
2022/05/30 00:02:47;;;;;;;12.55;2.42;;;9.30;99.90;;;;;;5054169;28;20059;-69
2022/05/30 00:05:13;;;;;;;10.98;2.10;;;9.30;99.90;;;;;;5054100;28;20040;-69
2022/05/30 00:07:39;;;;;;;7.40;2.13;;;9.30;99.90;;;;;;5054292;28;20076;-69
2022/05/30 00:10:07;;;;;;;11.10;2.05;;;9.30;99.90;;;;;;5037205;28;20076;-70
2022/05/30 00:12:33;;;;;;;6.55;1.70;;;9.20;99.90;;;;;;5037315;28;20091;-70
2022/05/30 00:14:59;;;;;;;11.38;2.00;;;9.20;99.90;;;;;;5054141;28;20528;-69
2022/05/30 00:17:25;;;;;;;8.38;1.85;;;9.20;99.90;;;;;;5053876;28;20041;-69
2022/05/30 00:19:51;;;;;;;7.97;1.63;;;9.20;99.90;;;;;;5054017;28;20037;-69
2022/05/30 00:22:17;;;;;;;11.63;1.98;;;9.10;99.90;;;;;;5053780;28;20650;-69
2022/05/30 00:24:43;;;;;;;8.65;1.70;;;9.10;99.90;;;;;;5054019;28;20404;-69
2022/05/30 00:27:10;;;;;;;7.78;1.95;;;9.10;99.90;;;;;;5053761;28;20493;-69
2022/05/30 00:29:36;;;;;;;7.57;1.75;;;9.10;99.90;;;;;;5053864;28;20107;-70
2022/05/30 00:32:02;;;;;;;7.18;1.55;;;9.10;99.90;;;;;;5053528;28;20092;-70
2022/05/30 00:34:28;;;;;;;10.30;1.67;;;9.10;99.90;;;;;;5053127;28;20132;-70
2022/05/30 00:36:54;;;;;;;8.77;1.90;;;9.00;99.90;;;;;;5053521;28;20493;-70
2022/05/30 00:39:19;;;;;;;10.30;2.08;;;9.00;99.90;;;;;;5036874;28;20055;-70
2022/05/30 00:41:45;;;;;;;8.30;1.92;;;8.90;99.90;;;;;;5053652;28;20033;-70
2022/05/30 00:44:12;;;;;;;10.38;1.63;;;8.90;99.90;;;;;;5036766;28;20090;-70
2022/05/30 00:46:37;;;;;;;9.95;1.67;;;8.90;99.90;;;;;;5053356;28;20036;-70
2022/05/30 00:49:06;;;;;;;9.45;2.10;;;8.90;99.90;;;;;;5053493;28;20120;-69
2022/05/30 00:51:34;;;;;;;6.65;1.67;;;8.80;99.90;;;;;;5054130;28;20036;-69
2022/05/30 00:54:03;;;;;;;11.82;2.15;;;8.80;99.90;;;;;;5053092;28;20045;-70
2022/05/30 00:56:36;;;;;;;16.80;2.40;;;8.80;99.90;;;;;;5053136;28;20531;-70
2022/05/30 00:59:03;;;;;;;8.85;2.00;;;8.70;99.90;;;;;;5053109;28;20037;-70
2022/05/30 01:01:30;;;;;;;14.23;2.38;;;8.60;99.90;;;;;;5036647;28;20128;-69
2022/05/30 01:06:45;;;;;;;7.07;2.03;;;8.50;99.90;;;;;;5052968;28;20053;-70
2022/05/30 01:09:19;;;;;;;10.80;1.85;;;8.40;99.90;;;;;;5052857;28;20041;-70
2022/05/30 01:11:57;;;;;;;9.30;2.22;;;8.50;99.90;;;;;;5053144;28;20051;-70
2022/05/30 01:14:26;;;;;;;10.15;1.77;;;8.40;99.90;;;;;;5036219;28;20072;-70
2022/05/30 01:16:51;;;;;;;9.65;2.20;;;8.40;99.90;;;;;;5036392;28;20041;-69
2022/05/30 01:19:52;;;;;;;10.70;2.30;;;8.40;99.90;;;;;;5052767;28;20455;-69
2022/05/30 01:22:20;;;;;;;10.35;1.77;;;8.30;99.90;;;;;;5052888;28;20048;-69
2022/05/30 01:24:54;;;;;;;9.45;2.05;;;8.30;99.90;;;;;;5052815;28;20110;-70
2022/05/30 01:27:22;;;;;;;13.07;1.70;;;8.30;99.90;;;;;;5052575;28;20049;-70
2022/05/30 01:29:54;;;;;;;8.30;1.60;;;8.30;99.90;;;;;;5052416;28;20052;-70
2022/05/30 01:32:21;;;;;;;7.50;2.38;;;8.30;99.90;;;;;;5052441;28;20554;-70
2022/05/30 01:34:47;;;;;;;7.30;1.60;;;8.20;99.90;;;;;;5060283;22;20041;-78
2022/05/30 01:37:13;;;;;;;8.10;1.98;;;8.20;99.90;;;;;;5032787;28;20084;-78
2022/05/30 01:39:38;;;;;;;9.15;1.80;;;8.20;99.90;;;;;;5016139;28;20503;-78
2022/05/30 01:42:05;;;;;;;8.50;2.05;;;8.20;99.90;;;;;;5032763;28;20132;-78
2022/05/30 01:44:31;;;;;;;10.65;2.05;;;8.20;99.90;;;;;;5032609;28;20041;-78
2022/05/30 01:46:57;;;;;;;6.95;1.80;;;8.20;99.90;;;;;;5015051;28;20045;-78
2022/05/30 01:49:22;;;;;;;8.68;2.13;;;8.20;99.90;;;;;;5032359;28;20045;-78
2022/05/30 01:51:48;;;;;;;10.98;2.05;;;8.20;99.90;;;;;;5032212;28;20049;-78
2022/05/30 01:54:14;;;;;;;5.68;1.63;;;8.20;99.90;;;;;;5016093;28;20037;-78
2022/05/30 01:56:39;;;;;;;7.07;2.17;;;8.10;99.90;;;;;;5032239;28;20045;-78
2022/05/30 01:59:05;;;;;;;9.02;1.90;;;8.20;99.90;;;;;;5015791;28;20029;-78
2022/05/30 02:01:30;;;;;;;9.13;2.83;;;8.10;99.90;;;;;;5032457;28;20076;-78
2022/05/30 02:03:57;;;;;;;9.55;2.15;;;8.10;99.90;;;;;;5015597;28;20041;-78
2022/05/30 02:06:26;;;;;;;5.57;1.33;;;8.10;99.90;;;;;;5032118;28;20543;-78
2022/05/30 02:08:52;;;;;;;5.28;1.55;;;8.00;99.90;;;;;;5032019;28;20049;-78
2022/05/30 02:11:18;;;;;;;12.10;1.98;;;8.00;99.90;;;;;;5032120;28;20133;-78
2022/05/30 02:13:44;;;;;;;9.32;2.08;;;8.00;99.90;;;;;;5031922;28;20493;-78
2022/05/30 02:18:57;;;;;;;7.78;1.55;;;7.90;99.90;;;;;;5031988;28;20485;-78
2022/05/30 02:21:23;;;;;;;6.78;1.83;;;7.90;99.90;;;;;;5015490;28;20034;-78
2022/05/30 02:23:48;;;;;;;6.55;1.67;;;7.80;99.90;;;;;;5032103;28;20038;-78
2022/05/30 02:26:14;;;;;;;6.70;2.20;;;7.80;99.90;;;;;;5015433;28;20080;-78
2022/05/30 02:28:40;;;;;;;6.30;1.63;;;7.80;99.90;;;;;;5032134;28;20136;-78
2022/05/30 02:31:06;;;;;;;7.45;2.00;;;7.80;99.90;;;;;;5015441;28;20412;-78
2022/05/30 02:36:41;;;;;;;7.07;1.80;;;7.80;99.90;;;;;;4989106;28;20046;-78
2022/05/30 02:39:13;;;;;;;5.55;1.50;;;7.70;99.90;;;;;;5031806;28;20091;-78
2022/05/30 02:41:40;;;;;;;9.15;2.00;;;7.70;99.90;;;;;;5032010;28;20073;-78
2022/05/30 02:44:07;;;;;;;6.78;1.92;;;7.60;99.90;;;;;;5031662;28;20563;-78
2022/05/30 02:46:33;;;;;;;4.25;1.60;;;7.60;99.90;;;;;;5031690;28;20524;-78
2022/05/30 02:48:58;;;;;;;6.22;1.80;;;7.60;99.90;;;;;;5031804;28;20038;-78
2022/05/30 02:51:24;;;;;;;6.35;1.88;;;7.60;99.90;;;;;;5031598;28;20095;-78
2022/05/30 02:53:50;;;;;;;6.47;1.70;;;7.50;99.90;;;;;;5032302;28;20092;-78
2022/05/30 02:56:17;;;;;;;5.93;1.95;;;7.50;99.90;;;;;;5031623;28;20033;-78
2022/05/30 02:58:43;;;;;;;7.78;1.73;;;7.50;99.90;;;;;;5035161;28;20052;-78
2022/05/30 03:01:10;;;;;;;8.75;2.08;;;7.50;99.90;;;;;;5018958;28;20034;-78
2022/05/30 03:03:36;;;;;;;6.32;2.00;;;7.40;99.90;;;;;;5035585;28;20452;-78
2022/05/30 03:06:02;;;;;;;4.60;1.52;;;7.40;99.90;;;;;;5019049;28;20568;-78
2022/05/30 03:08:28;;;;;;;5.40;1.50;;;7.40;99.90;;;;;;5035553;28;20146;-78
2022/05/30 03:10:53;;;;;;;7.47;2.10;;;7.40;99.90;;;;;;5018877;28;20084;-78
2022/05/30 03:13:19;;;;;;;4.85;1.65;;;7.40;99.90;;;;;;5018616;28;20405;-78
2022/05/30 03:15:45;;;;;;;5.63;1.60;;;7.40;99.90;;;;;;5035249;28;20033;-78
2022/05/30 03:18:10;;;;;;;5.70;1.60;;;7.30;99.90;;;;;;5018885;28;20084;-78
2022/05/30 03:20:36;;;;;;;5.03;1.92;;;7.30;99.90;;;;;;5035357;28;20080;-78
2022/05/30 03:23:02;;;;;;;6.90;1.80;;;7.40;99.90;;;;;;5034975;28;20534;-78
2022/05/30 03:25:27;;;;;;;5.50;1.92;;;7.30;99.90;;;;;;5035039;28;20042;-78
2022/05/30 03:27:54;;;;;;;4.68;1.90;;;7.30;99.90;;;;;;5018812;28;20052;-78
2022/05/30 03:30:20;;;;;;;6.93;1.67;;;7.30;99.90;;;;;;5018727;28;20049;-78
2022/05/30 03:32:46;;;;;;;5.15;1.90;;;7.20;99.90;;;;;;5018403;28;20077;-78
2022/05/30 03:35:13;;;;;;;8.10;1.80;;;7.20;99.90;;;;;;5018410;28;20527;-78
2022/05/30 03:37:40;;;;;;;5.35;1.85;;;7.20;99.90;;;;;;5018555;28;20072;-78
2022/05/30 03:40:09;;;;;;;5.32;1.45;;;7.10;99.90;;;;;;5034802;28;20033;-78
2022/05/30 03:42:34;;;;;;;5.85;1.85;;;7.10;99.90;;;;;;5034717;28;20072;-78
2022/05/30 03:45:00;;;;;;;5.65;1.60;;;7.10;99.90;;;;;;5034831;28;20065;-78
2022/05/30 03:47:25;;;;;;;4.95;1.58;;;7.10;99.90;;;;;;5034875;28;20044;-78
2022/05/30 03:50:00;;;;;;;5.00;2.08;;;7.10;99.90;;;;;;5034840;28;20357;-78
2022/05/30 03:52:26;;;;;;;5.22;1.52;;;7.10;99.90;;;;;;5034531;28;20041;-78
2022/05/30 03:54:52;;;;;;;6.00;1.55;;;7.20;99.90;;;;;;5034396;28;20572;-78
2022/05/30 03:57:18;;;;;;;4.10;1.48;;;7.20;99.90;;;;;;5034456;28;20041;-78
2022/05/30 03:59:44;;;;;;;7.15;2.00;;;7.20;99.90;;;;;;5034374;28;20052;-78
2022/05/30 04:02:09;;;;;;;3.47;1.33;;;7.20;99.90;;;;;;5034551;28;20029;-78
2022/05/30 04:04:35;;;;;;;4.68;1.88;;;7.20;99.90;;;;;;5017966;28;20482;-78
2022/05/30 04:07:01;;;;;;;4.60;1.30;;;7.20;99.90;;;;;;5034291;28;20489;-78
2022/05/30 04:09:26;;;;;;;3.65;1.77;;;7.20;99.90;;;;;;5033146;28;20183;-78
2022/05/30 04:11:52;;;;;;;6.68;2.00;;;7.20;99.90;;;;;;5017656;28;20134;-78
2022/05/30 04:14:17;;;;;;;4.13;1.60;;;7.20;99.90;;;;;;5017574;28;20107;-78
2022/05/30 04:16:43;;;;;;;8.93;2.00;;;7.30;99.90;;;;;;5034066;28;20049;-78
2022/05/30 04:19:08;;;;;;;6.03;1.92;;;7.20;99.90;;;;;;5017508;28;20045;-78
2022/05/30 04:21:35;;;;;;;3.90;1.55;;;7.20;99.90;;;;;;5017499;28;20041;-78
2022/05/30 04:24:01;;;;;;;5.15;1.67;;;7.30;99.90;;;;;;5034140;28;20034;-78
2022/05/30 04:26:27;;;;;;;4.78;1.50;;;7.30;99.90;;;;;;5017658;28;20516;-78
2022/05/30 04:28:53;;;;;;;3.45;1.50;;;7.20;99.90;;;;;;5033793;28;20033;-78
2022/05/30 04:31:18;;;;;;;5.90;1.80;;;7.30;99.90;;;;;;5033816;28;20039;-78
2022/05/30 04:33:44;;;;;;;4.78;1.77;;;7.30;99.90;;;;;;5017012;28;20042;-78
2022/05/30 04:36:12;;;;;;;3.90;1.60;;;7.30;99.90;;;;;;5033717;28;20036;-78
2022/05/30 04:38:37;;;;;;;3.88;1.40;;;7.30;99.90;;;;;;5017087;28;20402;-78
2022/05/30 04:41:03;;;;;;;4.55;1.85;;;7.40;99.90;;;;;;5033635;28;20030;-78
2022/05/30 04:43:29;;;;;;;4.25;1.70;;;7.40;99.90;;;;;;5033527;28;20049;-78
2022/05/30 04:46:16;;;;;;;4.75;1.65;;;7.40;99.90;;;;;;5033481;28;20042;-78
2022/05/30 04:48:42;;;;;;;5.13;1.60;;;7.50;99.90;;;;;;5033698;28;20433;-78
2022/05/30 04:51:08;;;;;;;6.13;1.95;;;7.50;99.90;;;;;;5017142;28;20045;-78
2022/05/30 04:53:34;;;;;;;5.05;1.58;;;7.60;99.90;;;;;;5033211;28;20086;-78
2022/05/30 04:56:00;;;;;;;4.90;1.80;;;7.60;99.90;;;;;;5017124;28;20042;-78
2022/05/30 04:58:30;;;;;;;4.78;1.70;;;7.70;99.90;;;;;;5033491;28;20033;-78
2022/05/30 05:01:09;;;;;;;4.80;1.73;;;7.70;99.90;;;;;;5033196;28;20074;-78
2022/05/30 05:03:37;;;;;;;3.78;1.60;;;7.70;99.90;;;;;;5033120;28;20120;-78
2022/05/30 05:06:08;;;;;;;3.88;1.55;;;7.70;99.90;;;;;;5033086;28;20045;-78
2022/05/30 05:08:41;;;;;;;4.28;1.90;;;7.80;99.90;;;;;;5033363;28;20103;-78
2022/05/30 05:11:12;;;;;;;;;;;7.80;99.90;;;;;;5033487;28;20041;-78
2022/05/30 05:13:39;;;;;;;10.05;2.63;;;7.80;99.90;;;;;;5032891;28;19921;-78
2022/05/30 05:16:06;;;;;;;4.90;2.00;;;7.90;99.90;;;;;;5032860;28;20037;-78
2022/05/30 05:18:32;;;;;;;3.05;1.58;;;7.90;99.90;;;;;;5016709;28;20451;-78
2022/05/30 05:20:57;;;;;;;4.57;1.77;;;8.00;99.90;;;;;;5032663;28;20037;-78
2022/05/30 05:23:23;;;;;;;6.05;2.10;;;8.10;99.90;;;;;;5032779;28;20077;-78
2022/05/30 05:25:48;;;;;;;6.72;1.88;;;8.20;99.90;;;;;;5032769;28;20087;-78
2022/05/30 05:28:14;;;;;;;6.13;2.00;;;8.30;99.90;;;;;;5032765;28;20037;-78
2022/05/30 05:30:42;;;;;;;5.28;1.95;;;8.40;99.90;;;;;;5016292;28;20049;-78
2022/05/30 05:33:08;;;;;;;8.27;2.03;;;8.50;99.90;;;;;;5032369;28;20060;-78
2022/05/30 05:35:34;;;;;;;6.13;2.00;;;8.60;99.90;;;;;;5016453;28;20444;-78
2022/05/30 05:38:00;;;;;;;4.70;1.70;;;8.70;99.90;;;;;;5032557;28;20124;-78
2022/05/30 05:40:28;;;;;;;5.00;1.88;;;8.80;99.90;;;;;;5016124;28;20073;-78
2022/05/30 05:42:54;;;;;;;6.38;1.70;;;8.90;99.90;;;;;;5032354;28;20056;-78
2022/05/30 05:45:20;;;;;;;7.97;1.60;;;9.00;99.90;;;;;;5032369;28;20041;-78
2022/05/30 05:47:45;;;;;;;4.80;1.50;;;9.10;99.90;;;;;;5032610;28;20106;-78
2022/05/30 05:50:11;;;;;;;5.90;1.50;;;9.30;99.90;;;;;;5032404;28;20041;-78
2022/05/30 05:52:37;;;;;;;8.45;1.60;;;9.30;99.90;;;;;;5015848;28;20128;-78
2022/05/30 05:55:03;;;;;;;5.78;1.23;;;9.50;99.90;;;;;;5016034;28;20037;-78
2022/05/30 05:57:29;;;;;;;4.90;1.27;;;9.60;99.90;;;;;;5032176;28;20041;-78
2022/05/30 05:59:55;;;;;;;3.35;1.13;;;9.70;99.90;;;;;;5015778;28;20167;-78
2022/05/30 06:02:22;;;;;;;3.25;1.00;;;9.80;99.90;;;;;;5032150;28;20041;-78
2022/05/30 06:04:51;;;;;;;2.72;0.82;;;9.90;99.90;;;;;;5032116;28;20060;-78
2022/05/30 06:07:18;;;;;;;6.20;1.17;;;10.00;99.90;;;;;;5032036;28;20049;-78
2022/05/30 06:09:43;;;;;;;2.47;1.00;;;10.10;99.90;;;;;;5015663;28;20128;-78
2022/05/30 06:12:09;;;;;;;5.03;1.20;;;10.10;99.90;;;;;;5032184;28;20124;-78
2022/05/30 06:14:36;;;;;;;4.78;1.33;;;10.20;99.90;;;;;;5015550;28;20041;-78
2022/05/30 06:17:02;;;;;;;4.13;1.20;;;10.20;99.90;;;;;;5015615;28;20048;-78
2022/05/30 06:19:28;;;;;;;3.83;1.48;;;10.30;99.90;;;;;;5032009;28;20033;-78
2022/05/30 06:21:53;;;;;;;4.53;1.30;;;10.30;99.90;;;;;;5015511;28;20053;-78
2022/05/30 06:24:19;;;;;;;5.45;1.40;;;10.40;99.90;;;;;;5015385;28;20041;-78
2022/05/30 06:26:44;;;;;;;5.43;1.75;;;10.50;99.90;;;;;;5032162;28;20041;-78
2022/05/30 06:29:14;;;;;;;6.95;1.10;;;10.70;99.90;;;;;;5031858;28;20041;-78
2022/05/30 06:31:40;;;;;;;4.68;1.20;;;10.80;99.90;;;;;;5015563;28;20041;-78
2022/05/30 06:34:07;;;;;;;5.57;1.10;;;10.80;99.90;;;;;;5019237;28;20057;-78
2022/05/30 06:36:34;;;;;;;6.35;1.40;;;11.00;99.90;;;;;;5035971;28;20124;-78
2022/05/30 06:39:00;;;;;;;3.72;1.10;;;11.10;99.90;;;;;;5035914;28;20044;-78
2022/05/30 06:41:29;;;;;;;3.60;0.90;;;11.10;99.90;;;;;;5019368;28;20115;-78
2022/05/30 06:43:58;;;;;;;7.40;0.98;;;11.10;99.90;;;;;;5035692;28;20513;-78
2022/05/30 06:46:23;;;;;;;3.53;0.98;;;11.10;99.90;;;;;;5019365;28;20069;-78
2022/05/30 06:48:51;;;;;;;3.15;0.55;;;11.20;99.90;;;;;;5035764;28;20115;-78
2022/05/30 06:51:18;;;;;;;6.07;0.98;;;11.20;99.90;;;;;;5035646;28;20045;-78
2022/05/30 06:53:44;;;;;;;5.13;0.80;;;11.40;99.90;;;;;;5035486;28;20124;-78
2022/05/30 06:56:19;;;;;;;3.08;0.82;;;11.50;99.90;;;;;;5035668;28;20124;-78
2022/05/30 06:58:46;;;;;;;4.32;0.80;;;11.70;99.90;;;;;;5035512;28;20033;-78
2022/05/30 07:01:12;;;;;;;5.20;0.88;;;11.80;99.90;;;;;;5019075;28;20037;-78
2022/05/30 07:03:39;;;;;;;2.45;0.70;;;11.80;99.90;;;;;;5035502;28;20041;-78
2022/05/30 07:06:07;;;;;;;5.05;0.80;;;11.90;99.90;;;;;;5035419;28;20045;-78
2022/05/30 07:08:33;;;;;;;4.65;0.65;;;12.00;99.90;;;;;;5018921;28;20041;-78
2022/05/30 07:11:01;;;;;;;4.47;0.80;;;12.00;99.90;;;;;;5035674;28;20099;-78
2022/05/30 07:13:27;;;;;;;2.25;0.60;;;11.90;99.90;;;;;;5035278;28;20077;-78
2022/05/30 07:15:52;;;;;;;3.80;0.50;;;11.90;99.90;;;;;;5018798;28;20068;-78
2022/05/30 07:18:19;;;;;;;3.35;0.68;;;11.90;99.90;;;;;;5035313;28;20033;-78
2022/05/30 07:20:45;;;;;;;5.13;0.50;;;11.90;99.90;;;;;;5035157;28;20042;-78
2022/05/30 07:23:13;;;;;;;4.82;0.80;;;12.00;99.90;;;;;;5035426;28;20490;-78
2022/05/30 07:25:39;;;;;;;5.65;0.60;;;12.10;99.90;;;;;;5035085;28;20045;-78
2022/05/30 07:28:05;;;;;;;3.08;0.90;;;12.30;99.90;;;;;;5035414;28;20081;-78
2022/05/30 07:30:35;;;;;;;3.83;0.60;;;12.40;99.90;;;;;;5018873;28;20436;-79
2022/05/30 07:33:01;;;;;;;3.70;0.70;;;12.50;99.90;;;;;;5034832;28;20045;-78
2022/05/30 07:35:26;;;;;;;3.15;0.70;;;12.60;99.90;;;;;;5035101;28;20554;-78
2022/05/30 07:37:52;;;;;;;3.40;0.50;;;12.60;99.90;;;;;;5018703;28;20132;-78
2022/05/30 07:40:18;;;;;;;1.90;0.70;;;12.50;99.90;;;;;;5034900;28;20048;-78
2022/05/30 07:42:44;;;;;;;3.63;0.70;;;12.40;99.90;;;;;;5034624;28;20033;-79
2022/05/30 07:45:11;;;;;;;1.33;0.50;;;12.30;99.90;;;;;;5034902;28;20095;-79
2022/05/30 07:47:37;;;;;;;3.53;0.40;;;12.20;99.90;;;;;;5035053;28;20041;-79
2022/05/30 07:50:04;;;;;;;1.90;0.43;;;12.20;99.90;;;;;;5035041;28;20053;-79
2022/05/30 07:52:30;;;;;;;2.05;0.40;;;12.30;99.90;;;;;;5034695;28;20508;-79
2022/05/30 07:54:56;;;;;;;1.98;0.50;;;12.40;99.90;;;;;;5018296;28;20033;-78
2022/05/30 07:57:50;;;;;;;1.55;0.40;;;12.50;99.90;;;;;;5018895;28;20041;-78
2022/05/30 08:00:09;;;;;;;3.03;0.45;;;12.70;99.90;;;;;;5034387;28;20414;-78
2022/05/30 08:02:34;;;;;;;2.90;0.45;;;13.00;99.90;;;;;;5017973;28;20493;-78
2022/05/30 08:05:00;;;;;;;3.35;0.47;;;13.10;99.90;;;;;;5034461;28;20095;-78
2022/05/30 08:07:25;;;;;;;2.47;0.38;;;13.10;99.90;;;;;;5034489;28;20570;-78
2022/05/30 08:09:51;;;;;;;2.00;0.50;;;13.00;99.90;;;;;;5018029;28;20124;-78
2022/05/30 08:12:17;;;;;;;2.85;0.40;;;12.90;99.90;;;;;;5034598;28;20033;-79
2022/05/30 08:14:42;;;;;;;1.77;0.52;;;12.70;99.90;;;;;;5034105;28;20501;-78
2022/05/30 08:17:08;;;;;;;2.33;0.40;;;12.60;99.90;;;;;;5034327;28;20075;-78
2022/05/30 08:19:33;;;;;;;3.22;0.50;;;12.60;99.90;;;;;;5017724;28;20405;-79
2022/05/30 08:22:04;;;;;;;3.03;0.75;;;12.40;99.90;;;;;;5033966;28;20460;-79
2022/05/30 08:24:38;;;;;;;1.48;0.50;;;12.20;99.90;;;;;;5033832;28;20037;-78
2022/05/30 08:27:04;;;;;;;1.00;0.35;;;12.00;99.90;;;;;;5033955;28;20037;-78
2022/05/30 08:29:30;;;;;;;1.70;0.50;;;11.90;99.90;;;;;;5034163;28;20045;-78
2022/05/30 08:31:56;;;;;;;1.27;0.40;;;11.90;99.90;;;;;;5017532;28;20052;-78
2022/05/30 08:34:21;;;;;;;1.80;0.30;;;11.80;99.90;;;;;;5033484;28;20045;-78
2022/05/30 08:36:47;;;;;;;2.25;0.30;;;11.80;99.90;;;;;;5017212;28;20040;-78
2022/05/30 08:41:57;;;;;;;1.77;0.30;;;11.70;99.90;;;;;;5033994;28;20041;-78
2022/05/30 08:44:23;;;;;;;1.17;0.30;;;11.80;99.90;;;;;;5033493;28;20418;-78
2022/05/30 08:46:56;;;;;;;2.00;0.30;;;11.80;99.90;;;;;;5033818;28;20037;-78
2022/05/30 08:49:42;;;;;;;0.57;0.22;;;11.90;99.90;;;;;;5016971;28;20045;-78
2022/05/30 08:52:21;;;;;;;0.85;0.35;;;12.10;99.90;;;;;;5017017;28;20124;-78
2022/05/30 08:55:15;;;;;;;1.88;0.32;;;12.20;99.90;;;;;;5032819;28;20045;-78
2022/05/30 08:57:59;;;;;;;1.95;0.40;;;12.40;99.90;;;;;;5016980;28;20037;-78
2022/05/30 09:00:41;;;;;;;2.25;0.30;;;12.50;99.90;;;;;;5033321;28;20045;-78
2022/05/30 09:03:23;;;;;;;1.50;0.20;;;12.60;99.90;;;;;;5016878;28;20049;-78
2022/05/30 09:05:52;;;;;;;1.40;0.28;;;12.70;99.90;;;;;;5016781;28;20080;-78
2022/05/30 09:08:34;;;;;;;1.35;0.35;;;12.90;99.90;;;;;;5033434;28;20489;-78
2022/05/30 09:11:05;;;;;;;1.25;0.35;;;13.10;99.90;;;;;;5033305;28;20041;-78
2022/05/30 09:13:40;;;;;;;1.92;0.30;;;13.30;99.90;;;;;;5033067;28;20520;-78
2022/05/30 09:16:22;;;;;;;2.38;0.30;;;13.50;99.90;;;;;;5033370;28;20124;-78
2022/05/30 09:18:53;;;;;;;1.60;0.40;;;13.70;99.90;;;;;;5033014;28;20082;-78
2022/05/30 09:21:20;;;;;;;2.83;0.45;;;14.00;99.90;;;;;;5032883;28;20045;-78
2022/05/30 09:23:46;;;;;;;2.15;0.60;;;14.40;99.90;;;;;;5033015;28;20045;-78
2022/05/30 09:26:22;;;;;;;1.83;0.40;;;14.70;99.90;;;;;;5033186;28;20186;-78
2022/05/30 09:28:49;;;;;;;1.63;0.50;;;15.00;99.90;;;;;;5016466;28;20049;-78
2022/05/30 09:31:21;;;;;;;1.77;0.40;;;15.10;99.90;;;;;;5033204;28;20124;-78
2022/05/30 09:33:53;;;;;;;3.00;0.40;;;15.00;99.90;;;;;;5016282;28;20403;-78
2022/05/30 09:36:30;;;;;;;1.43;0.10;;;14.80;99.90;;;;;;5032854;28;20131;-78
2022/05/30 09:39:01;;;;;;;0.30;0.10;;;14.60;99.90;;;;;;5033062;28;20064;-78
2022/05/30 09:41:53;;;;;;;0.63;0.20;;;14.40;99.90;;;;;;5016178;28;20459;-78
2022/05/30 09:44:19;;;;;;;1.38;0.10;;;14.40;99.90;;;;;;5009693;28;20042;-78
2022/05/30 09:46:53;;;;;;;0.47;0.10;;;14.20;99.90;;;;;;5032534;28;20043;-78
2022/05/30 09:49:25;;;;;;;0.70;0.17;;;14.10;99.90;;;;;;5032477;28;20087;-78
2022/05/30 09:51:58;;;;;;;0.88;0.10;;;14.00;99.90;;;;;;5032480;28;20041;-78
2022/05/30 09:54:24;;;;;;;2.30;0.30;;;14.00;99.90;;;;;;5032311;28;20041;-79
2022/05/30 09:57:10;;;;;;;2.50;0.20;;;14.00;99.90;;;;;;5032604;28;20045;-80
2022/05/30 09:59:40;;;;;;;0.85;0.25;;;14.10;99.90;;;;;;5031963;28;20050;-79
2022/05/30 10:02:23;;;;;;;0.77;0.20;;;14.20;99.90;;;;;;5032399;28;20567;-79
2022/05/30 10:04:55;;;;;;;2.67;0.40;;;14.20;99.90;;;;;;5032270;28;20034;-79
2022/05/30 10:07:21;;;;;;;1.30;0.50;;;14.10;99.90;;;;;;5031534;28;20049;-79
2022/05/30 10:10:24;;;;;;;1.63;0.22;;;14.00;99.90;;;;;;5015672;28;20040;-79
2022/05/30 10:13:01;;;;;;;2.28;0.20;;;13.90;99.90;;;;;;5015701;28;20049;-79
2022/05/30 10:15:44;;;;;;;2.60;0.30;;;13.90;99.90;;;;;;5032111;28;20045;-78
2022/05/30 10:18:13;;;;;;;1.80;0.35;;;13.90;99.90;;;;;;5015690;28;20040;-78
2022/05/30 10:21:03;;;;;;;2.35;0.30;;;14.00;99.90;;;;;;5015785;28;20041;-79
2022/05/30 10:30:07;;;;;;;1.87;0.40;;;14.30;99.90;;;;;;5032071;28;20045;-78
2022/05/30 10:33:19;;;;;;;1.08;0.30;;;14.30;99.90;;;;;;5031944;28;20054;-79
2022/05/30 10:35:56;;;;;;;1.17;0.20;;;14.30;99.90;;;;;;4956268;28;20043;-79
2022/05/30 10:38:54;;;;;;;1.08;0.50;;;14.30;99.90;;;;;;5027371;28;20045;-79
2022/05/30 10:41:41;;;;;;;1.48;0.30;;;14.40;99.90;;;;;;5031889;28;20120;-79
2022/05/30 10:44:21;;;;;;;1.63;0.30;;;14.40;99.90;;;;;;5015400;28;20046;-78
2022/05/30 10:47:08;;;;;;;1.70;0.40;;;14.50;99.90;;;;;;5031940;28;20413;-79
2022/05/30 10:49:37;;;;;;;1.23;0.35;;;14.70;99.90;;;;;;5032101;28;20132;-79
2022/05/30 10:52:29;;;;;;;1.77;0.30;;;14.90;99.90;;;;;;5032125;28;20060;-79
2022/05/30 10:55:01;;;;;;;1.50;0.30;;;15.10;99.90;;;;;;5031823;28;20045;-78
2022/05/30 10:57:47;;;;;;;1.67;0.28;;;15.20;99.90;;;;;;5032070;28;20519;-78
2022/05/30 11:00:22;;;;;;;1.75;0.43;;;15.40;99.90;;;;;;5032107;28;20037;-79
2022/05/30 11:03:11;;;;;;;1.65;0.40;;;15.50;99.90;;;;;;5031885;28;20048;-80
2022/05/30 11:05:44;;;;;;;1.67;0.30;;;15.60;99.90;;;;;;5015806;28;20050;-80
2022/05/30 11:08:46;;;;;;;0.98;0.35;;;15.80;99.90;;;;;;5031973;28;20049;-78
2022/05/30 11:11:21;;;;;;;2.90;0.63;;;15.90;99.90;;;;;;4947340;28;20055;-79
2022/05/30 11:14:03;;;;;;;0.80;0.20;;;15.80;99.90;;;;;;5031877;28;20516;-78
2022/05/30 11:16:31;;;;;;;1.45;0.30;;;15.70;99.90;;;;;;5032248;28;20037;-80
2022/05/30 11:19:18;;;;;;;2.78;0.60;;;15.50;99.90;;;;;;5017521;28;20067;-79
2022/05/30 11:22:05;;;;;;;6.68;0.60;;;15.20;99.90;;;;;;5035616;28;20068;-79
2022/05/30 11:24:32;;;;;;;3.55;0.60;;;14.90;99.90;;;;;;5035497;28;20124;-79
2022/05/30 11:27:28;;;;;;;5.47;0.68;;;14.80;99.90;;;;;;5035963;28;20056;-79
2022/05/30 11:30:23;;;;;;;3.72;0.45;;;14.70;99.90;;;;;;5019089;28;20387;-79
2022/05/30 11:33:00;;;;;;;1.48;0.40;;;14.60;99.90;;;;;;5034582;28;20072;-79
2022/05/30 11:35:58;;;;;;;1.90;0.20;;;14.60;99.90;;;;;;5019086;28;20512;-79
2022/05/30 11:38:47;;;;;;;2.33;0.30;;;14.50;99.90;;;;;;4992276;28;20096;-79
2022/05/30 11:41:38;;;;;;;1.30;0.40;;;14.40;99.90;;;;;;5021647;28;20049;-78
2022/05/30 11:44:25;;;;;;;1.77;0.38;;;14.30;99.90;;;;;;5035484;28;20047;-78
2022/05/30 11:46:54;;;;;;;3.15;0.38;;;14.20;99.90;;;;;;5035022;28;20046;-78
2022/05/30 11:49:53;;;;;;;2.47;0.30;;;14.20;99.90;;;;;;5034868;28;20444;-78
2022/05/30 11:52:31;;;;;;;2.80;0.30;;;14.10;99.90;;;;;;5034868;28;20044;-78
2022/05/30 11:55:23;;;;;;;1.88;0.30;;;14.00;99.90;;;;;;5018455;28;20037;-78
2022/05/30 11:58:13;;;;;;;1.98;0.60;;;13.90;99.90;;;;;;5014813;28;20390;-78
2022/05/30 12:00:47;;;;;;;2.08;0.60;;;13.80;99.90;;;;;;5034779;28;20044;-80
2022/05/30 12:03:29;;;;;;;3.13;0.50;;;13.80;99.90;;;;;;5034818;28;20447;-79
2022/05/30 12:06:16;;;;;;;3.25;0.60;;;13.70;99.90;;;;;;5035187;28;20060;-80
2022/05/30 12:09:14;;;;;;;2.08;0.50;;;13.50;99.90;;;;;;5018169;28;20390;-79
2022/05/30 12:12:31;;;;;;;2.35;0.60;;;13.40;99.90;;;;;;5017854;28;20541;-79
2022/05/30 12:15:29;;;;;;;2.67;0.68;;;13.40;99.90;;;;;;5029945;28;20060;-79
2022/05/30 12:24:04;;;;;;;1.23;0.40;;;13.30;99.90;;;;;;5034098;28;20045;-78
2022/05/30 12:26:55;;;;;;;3.38;0.75;;;13.30;99.90;;;;;;5034200;28;20132;-79
2022/05/30 12:29:37;;;;;;;2.28;0.63;;;13.30;99.90;;;;;;5017431;28;20041;-78
2022/05/30 12:32:29;;;;;;;1.98;0.65;;;13.20;99.90;;;;;;5034060;28;20042;-79
2022/05/30 12:34:58;;;;;;;2.33;0.60;;;13.30;99.90;;;;;;5034059;28;20129;-79
2022/05/30 12:37:44;;;;;;;1.92;0.35;;;13.30;99.90;;;;;;5033954;28;20041;-79
2022/05/30 12:40:13;;;;;;;2.35;0.50;;;13.40;99.90;;;;;;5017327;28;20069;-79
2022/05/30 12:42:42;;;;;;;1.95;0.30;;;13.50;99.90;;;;;;5017337;28;20057;-79
2022/05/30 12:45:19;;;;;;;2.10;0.35;;;13.70;99.90;;;;;;5034121;28;20049;-78
2022/05/30 12:47:54;;;;;;;1.70;0.40;;;13.80;99.90;;;;;;5017463;28;20045;-79
2022/05/30 12:50:32;;;;;;;1.92;0.38;;;14.00;99.90;;;;;;5033752;28;20037;-79
2022/05/30 12:53:00;;;;;;;4.03;0.57;;;14.20;99.90;;;;;;5033629;28;20049;-78
2022/05/30 12:55:38;;;;;;;1.85;0.40;;;14.40;99.90;;;;;;5033819;28;20076;-78
2022/05/30 12:58:04;;;;;;;2.90;0.47;;;14.70;99.90;;;;;;5034040;28;20513;-78
2022/05/30 13:00:36;;;;;;;2.05;0.35;;;14.90;99.90;;;;;;5017732;28;20048;-79
2022/05/30 13:03:23;;;;;;;2.92;0.47;;;15.10;99.90;;;;;;5017418;28;20045;-79
2022/05/30 13:06:23;;;;;;;4.20;0.75;;;15.30;99.90;;;;;;5034040;28;20116;-79
2022/05/30 13:09:11;;;;;;;5.03;0.57;;;15.50;99.90;;;;;;5033524;28;20564;-78
2022/05/30 13:12:08;;;;;;;4.35;0.47;;;15.60;99.90;;;;;;5017694;28;20055;-78
2022/05/30 13:14:59;;;;;;;1.83;0.40;;;15.60;99.90;;;;;;5017324;28;20037;-79
2022/05/30 13:17:39;;;;;;;3.42;0.43;;;15.40;99.90;;;;;;5017403;28;20063;-79
2022/05/30 13:20:06;;;;;;;2.92;0.70;;;15.30;99.90;;;;;;5033425;28;20029;-78
2022/05/30 13:22:40;;;;;;;2.00;0.55;;;15.30;99.90;;;;;;5016990;28;20038;-78
2022/05/30 13:25:09;;;;;;;2.00;0.40;;;15.20;99.90;;;;;;5033164;28;20043;-78
2022/05/30 13:27:34;;;;;;;4.28;0.50;;;15.10;99.90;;;;;;5033534;28;20034;-78
2022/05/30 13:30:03;;;;;;;2.25;0.40;;;14.90;99.90;;;;;;5016750;28;20493;-78
2022/05/30 13:32:29;;;;;;;2.15;0.52;;;14.80;99.90;;;;;;5033009;28;20038;-78
2022/05/30 13:34:59;;;;;;;1.90;0.60;;;14.70;99.90;;;;;;5032839;28;20083;-78